createdAt,value
2022-08-26T00:02:11.247Z,24.47
2022-08-26T00:04:38.771Z,24.38
2022-08-26T00:07:06.194Z,24.19
2022-08-26T00:09:38.889Z,24.57
2022-08-26T00:12:09.342Z,24.76
2022-08-26T00:14:40.140Z,24.72
2022-08-26T00:17:09.846Z,24.89
2022-08-26T00:19:37.905Z,24.55
2022-08-26T00:22:05.336Z,24.49
2022-08-26T00:24:32.895Z,24.59
2022-08-26T00:27:00.522Z,24.58
2022-08-26T00:29:28.546Z,24.53
2022-08-26T00:31:59.501Z,24.41
2022-08-26T00:34:27.059Z,24.09
2022-08-26T00:36:54.595Z,24.37
2022-08-26T00:39:22.273Z,24.67
2022-08-26T00:41:50.647Z,24.75
2022-08-26T00:44:19.677Z,24.82
2022-08-26T00:46:51.673Z,25.05
2022-08-26T00:49:29.604Z,24.98
2022-08-26T00:52:01.107Z,24.83
2022-08-26T00:54:33.335Z,24.68
2022-08-26T00:57:04.901Z,24.82
2022-08-26T00:59:36.426Z,24.88
2022-08-26T01:02:06.822Z,24.91
2022-08-26T01:04:55.867Z,24.81
2022-08-26T01:07:31.309Z,24.47
2022-08-26T01:10:06.645Z,24.48
2022-08-26T01:12:36.508Z,24.62
2022-08-26T01:15:10.235Z,24.66
2022-08-26T01:17:42.133Z,24.39
2022-08-26T01:20:23.986Z,24.14
2022-08-26T01:22:57.722Z,24.66
2022-08-26T01:25:30.157Z,24.16
2022-08-26T01:28:02.425Z,23.99
2022-08-26T01:30:31.439Z,23.94
2022-08-26T01:33:03.197Z,24.05
2022-08-26T01:35:30.886Z,24.00
2022-08-26T01:38:00.717Z,24.14
2022-08-26T01:40:35.792Z,24.23
2022-08-26T01:43:07.733Z,24.38
2022-08-26T01:45:40.447Z,24.29
2022-08-26T01:48:12.344Z,24.28
2022-08-26T01:50:42.849Z,24.27
2022-08-26T01:53:15.081Z,24.40
2022-08-26T01:55:46.612Z,24.30
2022-08-26T01:58:23.666Z,24.53
2022-08-26T02:00:52.092Z,24.52
2022-08-26T02:03:22.721Z,24.66
2022-08-26T02:05:57.579Z,24.94
2022-08-26T02:08:35.953Z,24.97
2022-08-26T02:11:03.930Z,24.92
2022-08-26T02:13:34.019Z,24.86
2022-08-26T02:16:03.952Z,24.71
2022-08-26T02:18:35.452Z,24.88
2022-08-26T02:21:06.737Z,24.74
2022-08-26T02:23:34.358Z,24.91
2022-08-26T02:26:12.028Z,24.95
2022-08-26T02:29:01.823Z,25.11
2022-08-26T02:31:29.598Z,25.16
2022-08-26T02:34:13.293Z,25.17
2022-08-26T02:36:42.743Z,25.26
2022-08-26T02:39:10.238Z,25.35
2022-08-26T02:41:44.914Z,25.35
2022-08-26T02:44:13.233Z,25.15
2022-08-26T02:46:46.764Z,25.08
2022-08-26T02:49:17.162Z,25.25
2022-08-26T02:51:49.563Z,25.11
2022-08-26T02:54:21.459Z,25.25
2022-08-26T02:56:48.961Z,25.24
2022-08-26T02:59:16.345Z,25.53
2022-08-26T03:01:45.282Z,25.54
2022-08-26T03:04:13.384Z,25.33
2022-08-26T03:06:42.654Z,24.99
2022-08-26T03:09:18.639Z,24.93
2022-08-26T03:11:47.212Z,25.04
2022-08-26T03:14:15.226Z,24.91
2022-08-26T03:16:43.352Z,24.88
2022-08-26T03:19:11.497Z,24.35
2022-08-26T03:21:39.387Z,24.38
2022-08-26T03:24:09.818Z,24.53
2022-08-26T03:26:37.476Z,24.53
2022-08-26T03:29:25.177Z,24.65
2022-08-26T03:31:53.609Z,24.69
2022-08-26T03:34:21.608Z,24.56
2022-08-26T03:36:50.231Z,24.72
2022-08-26T03:39:17.799Z,24.63
2022-08-26T03:41:45.362Z,24.62
2022-08-26T03:44:14.492Z,24.75
2022-08-26T03:46:42.087Z,24.75
2022-08-26T03:49:11.633Z,24.80
2022-08-26T03:51:39.409Z,24.55
2022-08-26T03:54:10.645Z,24.74
2022-08-26T03:56:38.581Z,24.60
2022-08-26T03:59:07.869Z,24.59
2022-08-26T04:01:36.187Z,24.42
2022-08-26T04:04:04.091Z,24.69
2022-08-26T04:06:38.918Z,24.58
2022-08-26T04:09:10.157Z,24.32
2022-08-26T04:11:39.685Z,24.51
2022-08-26T04:14:13.551Z,24.23
2022-08-26T04:16:42.646Z,24.31
2022-08-26T04:19:14.870Z,24.09
2022-08-26T04:21:42.932Z,23.92
2022-08-26T04:24:12.962Z,23.98
2022-08-26T04:26:43.644Z,24.04
2022-08-26T04:29:21.434Z,23.90
2022-08-26T04:31:49.377Z,24.11
2022-08-26T04:34:17.923Z,24.00
2022-08-26T04:36:45.343Z,24.02
2022-08-26T04:39:19.716Z,24.05
2022-08-26T04:41:50.273Z,24.01
2022-08-26T04:44:18.743Z,24.13
2022-08-26T04:46:46.263Z,24.23
2022-08-26T04:49:14.284Z,24.30
2022-08-26T04:51:41.801Z,24.24
2022-08-26T04:54:11.699Z,24.14
2022-08-26T04:56:41.512Z,24.08
2022-08-26T04:59:17.102Z,24.33
2022-08-26T05:01:51.616Z,24.43
2022-08-26T05:04:20.661Z,24.40
2022-08-26T05:06:50.666Z,24.33
2022-08-26T05:09:20.281Z,24.35
2022-08-26T05:11:52.154Z,24.28
2022-08-26T05:14:23.209Z,24.35
2022-08-26T05:16:51.717Z,24.59
2022-08-26T05:19:19.564Z,24.59
2022-08-26T05:21:48.563Z,24.68
2022-08-26T05:24:17.144Z,24.91
2022-08-26T05:26:46.477Z,24.87
2022-08-26T05:29:14.172Z,24.83
2022-08-26T05:31:41.937Z,24.80
2022-08-26T05:34:11.959Z,24.50
2022-08-26T05:36:40.188Z,24.45
2022-08-26T05:39:08.178Z,24.63
2022-08-26T05:41:41.757Z,24.76
2022-08-26T05:44:15.237Z,24.86
2022-08-26T05:46:44.899Z,25.48
2022-08-26T05:49:15.858Z,25.19
2022-08-26T05:51:47.929Z,25.37
2022-08-26T05:54:21.780Z,25.24
2022-08-26T05:56:51.372Z,25.40
2022-08-26T05:59:23.895Z,25.63
2022-08-26T06:01:53.419Z,25.57
2022-08-26T06:04:22.032Z,26.04
2022-08-26T06:06:52.128Z,26.03
2022-08-26T06:09:19.717Z,26.28
2022-08-26T06:11:47.331Z,26.43
2022-08-26T06:14:15.453Z,26.61
2022-08-26T06:16:45.058Z,26.90
2022-08-26T06:19:15.130Z,26.73
2022-08-26T06:21:46.366Z,26.56
2022-08-26T06:24:33.463Z,26.93
2022-08-26T06:27:04.757Z,27.12
2022-08-26T06:29:34.772Z,27.28
2022-08-26T06:32:04.702Z,27.36
2022-08-26T06:34:32.886Z,27.75
2022-08-26T06:37:03.283Z,27.21
2022-08-26T06:39:31.704Z,26.81
2022-08-26T06:42:02.539Z,27.16
2022-08-26T06:45:38.968Z,27.55
2022-08-26T06:52:51.269Z,30.71
2022-08-26T07:01:02.604Z,34.31
2022-08-26T07:04:47.856Z,33.90
2022-08-26T07:07:54.984Z,34.96
2022-08-26T07:24:20.750Z,36.33
2022-08-26T07:26:44.706Z,35.86
2022-08-26T07:29:33.794Z,35.22
2022-08-26T07:32:50.261Z,35.76
2022-08-26T07:42:55.449Z,35.42
2022-08-26T07:46:27.227Z,36.97
2022-08-26T07:49:45.185Z,39.28
2022-08-26T07:52:28.749Z,36.58
2022-08-26T07:56:07.466Z,37.11
2022-08-26T07:58:36.512Z,34.44
2022-08-26T08:01:05.230Z,35.72
2022-08-26T08:09:17.068Z,37.79
2022-08-26T08:11:49.588Z,38.80
2022-08-26T08:23:28.348Z,37.41
2022-08-26T08:26:14.095Z,37.84
2022-08-26T08:28:47.968Z,37.40
2022-08-26T08:34:18.156Z,38.29
2022-08-26T08:36:54.944Z,36.06
2022-08-26T08:40:13.506Z,38.66
2022-08-26T08:43:12.906Z,39.37
2022-08-26T08:45:52.920Z,40.33
2022-08-26T08:49:32.349Z,37.30
2022-08-26T08:52:22.376Z,36.35
2022-08-26T08:54:56.569Z,38.96
2022-08-26T08:57:56.176Z,39.60
2022-08-26T09:00:42.739Z,39.14
2022-08-26T09:03:29.421Z,39.93
2022-08-26T09:06:17.007Z,36.24
2022-08-26T09:08:50.693Z,39.89
2022-08-26T09:11:29.143Z,38.85
2022-08-26T09:14:00.369Z,39.63
2022-08-26T09:16:55.185Z,39.95
2022-08-26T09:23:43.489Z,39.83
2022-08-26T09:26:42.636Z,40.67
2022-08-26T09:29:26.381Z,38.98
2022-08-26T09:32:24.459Z,38.52
2022-08-26T09:35:02.582Z,36.82
2022-08-26T09:41:02.393Z,39.10
2022-08-26T09:43:33.009Z,39.23
2022-08-26T09:50:31.910Z,40.08
2022-08-26T09:53:28.553Z,38.67
2022-08-26T09:56:11.636Z,38.25
2022-08-26T09:58:42.239Z,36.90
2022-08-26T10:01:36.460Z,36.03
2022-08-26T10:04:16.579Z,36.60
2022-08-26T10:06:59.328Z,37.02
2022-08-26T10:09:28.937Z,34.70
2022-08-26T10:12:08.506Z,35.53
2022-08-26T10:17:38.424Z,34.96
2022-08-26T10:20:22.581Z,35.73
2022-08-26T10:23:47.330Z,35.56
2022-08-26T10:26:33.683Z,34.15
2022-08-26T10:29:07.856Z,35.23
2022-08-26T10:31:43.275Z,35.71
2022-08-26T10:34:12.327Z,36.14
2022-08-26T10:37:15.527Z,35.79
2022-08-26T10:39:57.303Z,36.08
2022-08-26T10:42:37.808Z,34.52
2022-08-26T10:45:25.276Z,35.43
2022-08-26T10:48:00.233Z,35.41
2022-08-26T10:54:39.601Z,35.42
2022-08-26T10:57:22.920Z,35.31
2022-08-26T11:00:27.570Z,36.19
2022-08-26T11:03:22.960Z,35.07
2022-08-26T11:06:20.192Z,34.46
2022-08-26T11:08:56.113Z,34.60
2022-08-26T11:11:42.077Z,35.00
2022-08-26T11:14:29.020Z,34.19
2022-08-26T11:17:01.166Z,35.10
2022-08-26T11:20:00.332Z,35.47
2022-08-26T11:22:39.766Z,35.70
2022-08-26T11:25:18.844Z,34.60
2022-08-26T11:27:50.841Z,34.61
2022-08-26T11:30:57.736Z,35.77
2022-08-26T11:34:01.381Z,35.09
2022-08-26T11:37:12.516Z,35.01
2022-08-26T11:39:57.043Z,34.53
2022-08-26T11:42:31.216Z,35.09
2022-08-26T11:45:02.491Z,34.69
2022-08-26T11:47:33.236Z,34.87
2022-08-26T11:50:10.084Z,34.98
2022-08-26T11:52:39.854Z,35.14
2022-08-26T11:55:14.556Z,34.18
2022-08-26T11:58:51.286Z,33.27
2022-08-26T12:01:40.145Z,34.69
2022-08-26T12:05:00.525Z,35.25
2022-08-26T12:07:36.109Z,35.19
2022-08-26T12:10:06.934Z,34.12
2022-08-26T12:12:42.600Z,34.29
2022-08-26T12:15:37.314Z,34.61
2022-08-26T12:18:29.501Z,34.63
2022-08-26T12:21:42.941Z,34.65
2022-08-26T12:24:10.640Z,34.52
2022-08-26T12:26:41.549Z,34.33
2022-08-26T12:29:26.945Z,34.69
2022-08-26T12:32:13.669Z,34.63
2022-08-26T12:35:12.118Z,35.02
2022-08-26T12:37:51.255Z,34.35
2022-08-26T12:40:50.572Z,34.57
2022-08-26T12:43:56.900Z,34.21
2022-08-26T12:46:29.303Z,33.97
2022-08-26T12:49:03.484Z,34.18
2022-08-26T12:51:42.007Z,34.40
2022-08-26T12:54:41.239Z,34.55
2022-08-26T12:57:13.468Z,33.84
2022-08-26T12:59:41.346Z,34.19
2022-08-26T13:02:11.598Z,34.51
2022-08-26T13:04:43.206Z,34.45
2022-08-26T13:07:24.383Z,33.97
2022-08-26T13:09:57.467Z,34.09
2022-08-26T13:12:33.731Z,34.06
2022-08-26T13:15:06.102Z,34.16
2022-08-26T13:17:36.124Z,33.78
2022-08-26T13:20:04.811Z,33.73
2022-08-26T13:22:32.868Z,33.70
2022-08-26T13:25:00.627Z,34.28
2022-08-26T13:27:33.224Z,33.78
2022-08-26T13:30:05.059Z,34.31
2022-08-26T13:32:37.751Z,33.33
2022-08-26T13:35:08.648Z,33.87
2022-08-26T13:37:45.374Z,34.55
2022-08-26T13:40:14.481Z,34.09
2022-08-26T13:42:49.825Z,34.13
2022-08-26T13:45:22.499Z,34.32
2022-08-26T13:47:50.485Z,33.45
2022-08-26T13:50:20.484Z,33.27
2022-08-26T13:52:48.243Z,33.05
2022-08-26T13:55:16.041Z,33.13
2022-08-26T13:57:43.876Z,33.49
2022-08-26T14:00:12.307Z,33.85
2022-08-26T14:02:46.021Z,33.67
2022-08-26T14:05:16.235Z,33.72
2022-08-26T14:07:47.953Z,33.33
2022-08-26T14:10:17.809Z,33.83
2022-08-26T14:12:47.884Z,33.29
2022-08-26T14:15:18.051Z,33.04
2022-08-26T14:17:49.572Z,33.07
2022-08-26T14:20:31.724Z,32.48
2022-08-26T14:23:17.710Z,33.32
2022-08-26T14:25:52.926Z,33.13
2022-08-26T14:28:23.320Z,33.31
2022-08-26T14:30:55.403Z,33.19
2022-08-26T14:33:32.843Z,33.15
2022-08-26T14:36:19.408Z,33.09
2022-08-26T14:38:50.960Z,33.49
2022-08-26T14:41:20.130Z,33.15
2022-08-26T14:44:02.006Z,33.30
2022-08-26T14:46:33.514Z,33.81
2022-08-26T14:49:05.204Z,33.68
2022-08-26T14:52:19.969Z,33.72
2022-08-26T14:54:47.635Z,33.73
2022-08-26T14:57:25.713Z,33.74
2022-08-26T14:59:53.409Z,33.78
2022-08-26T15:02:56.498Z,33.21
2022-08-26T15:05:27.415Z,33.43
2022-08-26T15:07:57.534Z,33.68
2022-08-26T15:10:44.951Z,32.45
2022-08-26T15:13:21.543Z,32.15
2022-08-26T15:15:53.366Z,32.10
2022-08-26T15:18:36.953Z,32.19
2022-08-26T15:21:28.682Z,31.57
2022-08-26T15:23:59.921Z,31.88
2022-08-26T15:26:29.938Z,32.30
2022-08-26T15:29:36.291Z,32.03
2022-08-26T15:32:05.168Z,31.71
2022-08-26T15:34:32.945Z,31.82
2022-08-26T15:37:03.098Z,31.76
2022-08-26T15:39:54.579Z,31.82
2022-08-26T15:42:57.508Z,31.46
2022-08-26T15:46:20.638Z,31.65
2022-08-26T15:49:40.899Z,31.31
2022-08-26T15:52:10.719Z,31.79
2022-08-26T15:55:54.447Z,32.07
2022-08-26T15:58:24.319Z,31.60
2022-08-26T16:00:56.834Z,31.44
2022-08-26T16:03:24.767Z,31.39
2022-08-26T16:05:56.636Z,31.27
2022-08-26T16:08:24.383Z,30.96
2022-08-26T16:10:53.165Z,31.08
2022-08-26T16:13:23.944Z,30.92
2022-08-26T16:15:54.132Z,30.61
2022-08-26T16:18:24.382Z,30.62
2022-08-26T16:21:06.573Z,30.68
2022-08-26T16:23:45.397Z,30.79
2022-08-26T16:26:19.620Z,30.81
2022-08-26T16:28:51.974Z,30.68
2022-08-26T16:31:21.400Z,30.42
2022-08-26T16:33:51.971Z,30.33
2022-08-26T16:36:25.861Z,30.43
2022-08-26T16:38:58.259Z,30.36
2022-08-26T16:41:29.156Z,30.45
2022-08-26T16:44:53.973Z,30.51
2022-08-26T16:47:23.240Z,30.45
2022-08-26T16:49:51.440Z,30.20
2022-08-26T16:52:21.521Z,30.28
2022-08-26T16:54:53.247Z,30.43
2022-08-26T16:57:28.202Z,30.62
2022-08-26T16:59:56.029Z,30.90
2022-08-26T17:02:29.328Z,30.72
2022-08-26T17:04:57.217Z,30.88
2022-08-26T17:07:27.295Z,30.93
2022-08-26T17:09:55.894Z,30.92
2022-08-26T17:12:28.453Z,30.95
2022-08-26T17:14:57.492Z,31.04
2022-08-26T17:17:29.768Z,31.01
2022-08-26T17:19:57.782Z,31.05
2022-08-26T17:22:31.515Z,31.27
2022-08-26T17:25:34.167Z,30.90
2022-08-26T17:28:01.998Z,31.04
2022-08-26T17:30:30.896Z,30.91
2022-08-26T17:33:10.796Z,30.84
2022-08-26T17:35:39.039Z,30.70
2022-08-26T17:38:07.281Z,30.65
2022-08-26T17:40:39.822Z,30.50
2022-08-26T17:43:12.508Z,30.51
2022-08-26T17:45:40.735Z,30.34
2022-08-26T17:48:10.811Z,30.39
2022-08-26T17:50:41.274Z,29.68
2022-08-26T17:53:12.732Z,29.61
2022-08-26T17:55:50.238Z,29.37
2022-08-26T17:58:20.398Z,29.25
2022-08-26T18:01:29.895Z,29.15
2022-08-26T18:04:00.423Z,29.33
2022-08-26T18:07:23.037Z,29.58
2022-08-26T18:09:50.947Z,29.02
2022-08-26T18:12:18.577Z,29.08
2022-08-26T18:15:27.518Z,28.96
2022-08-26T18:17:58.369Z,29.34
2022-08-26T18:20:26.136Z,29.34
2022-08-26T18:22:54.443Z,29.33
2022-08-26T18:25:22.346Z,29.28
2022-08-26T18:27:52.228Z,29.09
2022-08-26T18:30:21.581Z,29.10
2022-08-26T18:32:50.207Z,29.22
2022-08-26T18:35:25.489Z,28.88
2022-08-26T18:39:01.488Z,29.02
2022-08-26T18:41:32.516Z,28.99
2022-08-26T18:44:00.512Z,28.99
2022-08-26T18:46:36.513Z,28.79
2022-08-26T18:49:22.609Z,28.92
2022-08-26T18:51:55.407Z,28.86
2022-08-26T18:54:26.089Z,28.91
2022-08-26T18:57:28.445Z,28.90
2022-08-26T18:59:56.335Z,28.81
2022-08-26T19:02:24.598Z,28.48
2022-08-26T19:05:02.241Z,28.77
2022-08-26T19:07:30.336Z,28.70
2022-08-26T19:09:58.027Z,28.68
2022-08-26T19:16:18.704Z,28.57
2022-08-26T19:18:47.453Z,28.58
2022-08-26T19:21:40.636Z,28.89
2022-08-26T19:24:15.383Z,28.87
2022-08-26T19:26:45.705Z,29.00
2022-08-26T19:29:15.289Z,29.20
2022-08-26T19:31:47.932Z,28.55
2022-08-26T19:34:20.951Z,28.15
2022-08-26T19:36:49.557Z,28.32
2022-08-26T19:39:17.586Z,28.22
2022-08-26T19:42:52.236Z,27.90
2022-08-26T19:45:25.769Z,28.29
2022-08-26T19:47:54.015Z,27.61
2022-08-26T19:50:22.584Z,27.69
2022-08-26T19:52:50.229Z,27.88
2022-08-26T19:55:19.250Z,27.94
2022-08-26T19:57:47.055Z,27.70
2022-08-26T20:00:30.590Z,27.89
2022-08-26T20:03:29.194Z,28.06
2022-08-26T20:05:58.205Z,27.81
2022-08-26T20:08:26.043Z,27.92
2022-08-26T20:10:55.296Z,27.89
2022-08-26T20:13:28.469Z,27.24
2022-08-26T20:16:41.053Z,27.54
2022-08-26T20:19:28.716Z,27.73
2022-08-26T20:21:56.323Z,27.85
2022-08-26T20:24:26.445Z,27.77
2022-08-26T20:26:58.663Z,27.77
2022-08-26T20:30:41.536Z,27.76
2022-08-26T20:34:10.380Z,27.81
2022-08-26T20:36:39.698Z,27.65
2022-08-26T20:39:11.847Z,27.81
2022-08-26T20:41:44.534Z,27.77
2022-08-26T20:44:13.937Z,27.63
2022-08-26T20:46:41.755Z,27.83
2022-08-26T20:49:09.797Z,27.91
2022-08-26T20:51:38.015Z,27.69
2022-08-26T20:54:07.511Z,27.89
2022-08-26T20:56:35.935Z,27.73
2022-08-26T20:59:08.093Z,27.73
2022-08-26T21:01:42.175Z,27.79
2022-08-26T21:04:17.717Z,27.57
2022-08-26T21:06:48.993Z,27.60
2022-08-26T21:09:23.014Z,27.74
2022-08-26T21:11:57.133Z,27.44
2022-08-26T21:15:13.684Z,27.20
2022-08-26T21:17:44.310Z,27.28
2022-08-26T21:20:12.138Z,27.25
2022-08-26T21:22:39.798Z,27.15
2022-08-26T21:25:10.076Z,27.18
2022-08-26T21:27:38.518Z,27.04
2022-08-26T21:30:06.775Z,26.67
2022-08-26T21:32:34.531Z,26.38
2022-08-26T21:35:02.499Z,26.32
2022-08-26T21:37:30.168Z,26.50
2022-08-26T21:39:59.319Z,26.48
2022-08-26T21:42:27.036Z,26.52
2022-08-26T21:44:57.531Z,26.55
2022-08-26T21:47:25.238Z,26.55
2022-08-26T21:50:01.610Z,26.44
2022-08-26T21:52:29.545Z,26.55
2022-08-26T21:55:01.574Z,26.50
2022-08-26T21:57:31.714Z,26.29
2022-08-26T21:59:59.526Z,26.26
2022-08-26T22:02:29.593Z,25.76
2022-08-26T22:04:57.466Z,25.72
2022-08-26T22:07:25.085Z,25.66
2022-08-26T22:09:52.900Z,25.82
2022-08-26T22:12:20.601Z,25.68
2022-08-26T22:14:49.426Z,25.66
2022-08-26T22:17:47.819Z,25.73
2022-08-26T22:20:16.528Z,25.85
2022-08-26T22:22:45.246Z,25.45
2022-08-26T22:25:13.060Z,25.39
2022-08-26T22:27:43.016Z,25.08
2022-08-26T22:30:11.708Z,25.13
2022-08-26T22:32:40.462Z,25.15
2022-08-26T22:35:28.971Z,25.29
2022-08-26T22:37:57.263Z,25.37
2022-08-26T22:41:09.909Z,25.66
2022-08-26T22:43:38.712Z,25.64
2022-08-26T22:46:09.646Z,25.63
2022-08-26T22:48:40.495Z,25.78
2022-08-26T22:51:19.387Z,26.03
2022-08-26T22:53:47.642Z,26.23
2022-08-26T22:57:26.463Z,25.98
2022-08-26T22:59:58.601Z,25.51
2022-08-26T23:02:29.991Z,25.72
2022-08-26T23:04:57.741Z,25.60
2022-08-26T23:07:25.460Z,25.64
2022-08-26T23:09:58.500Z,24.99
2022-08-26T23:12:27.804Z,24.95
2022-08-26T23:14:59.089Z,24.91
2022-08-26T23:17:26.789Z,25.30
2022-08-26T23:19:55.363Z,25.40
2022-08-26T23:22:23.040Z,25.51
2022-08-26T23:24:51.024Z,24.99
2022-08-26T23:28:03.972Z,24.49
2022-08-26T23:30:33.898Z,24.75
2022-08-26T23:33:01.604Z,24.86
2022-08-26T23:35:30.066Z,25.19
2022-08-26T23:38:00.968Z,25.22
2022-08-26T23:40:34.782Z,25.19
2022-08-26T23:43:08.001Z,25.42
2022-08-26T23:45:36.011Z,25.49
2022-08-26T23:48:04.618Z,25.47
2022-08-26T23:50:51.047Z,25.77
2022-08-26T23:53:21.404Z,25.32
2022-08-26T23:55:53.154Z,25.05
2022-08-26T23:58:21.582Z,24.89
